Time;durP1;ratioP1;P1;durP2;ratioP2;P2;SDS_P1;SDS_P2;PMS_P1;PMS_P2;Temp;Humidity;BMP_temperature;BMP_pressure;BME280_temperature;BME280_humidity;BME280_pressure;Samples;Min_cycle;Max_cycle;Signal;HPM_P1;HPM_P2
2021/03/08 00:01:13;;;;;;;0.00;0.00;;;;;;;;;;6295687;22;20008;-93
2021/03/08 00:03:49;;;;;;;0.00;0.00;;;;;;;;;;6283967;22;20076;-93
2021/03/08 00:06:41;;;;;;;0.00;0.00;;;;;;;;;;6269622;22;19996;-93
2021/03/08 00:09:15;;;;;;;0.00;0.00;;;;;;;;;;6256372;22;20023;-93
2021/03/08 00:12:17;;;;;;;0.00;0.00;;;;;;;;;;6253433;22;20023;-93
2021/03/08 00:14:49;;;;;;;0.00;0.00;;;;;;;;;;6256539;22;20011;-93
2021/03/08 00:17:16;;;;;;;0.00;0.00;;;;;;;;;;6267387;22;19995;-93
2021/03/08 00:19:49;;;;;;;0.00;0.00;;;;;;;;;;6271926;22;20003;-92
2021/03/08 00:22:37;;;;;;;0.00;0.00;;;;;;;;;;6254797;22;20007;-94
2021/03/08 00:25:16;;;;;;;0.00;0.00;;;;;;;;;;6258332;22;20003;-94
2021/03/08 00:27:41;;;;;;;0.00;0.00;;;;;;;;;;6264211;22;20003;-94
2021/03/08 00:30:12;;;;;;;0.00;0.00;;;;;;;;;;6256558;22;19999;-94
2021/03/08 00:32:46;;;;;;;0.00;0.00;;;;;;;;;;6263030;22;20007;-95
2021/03/08 00:35:16;;;;;;;0.00;0.00;;;;;;;;;;6260850;22;20066;-94
2021/03/08 00:37:42;;;;;;;0.00;0.00;;;;;;;;;;6263268;22;20000;-93
2021/03/08 00:40:09;;;;;;;0.00;0.00;;;;;;;;;;6256088;22;20038;-93
2021/03/08 00:42:34;;;;;;;0.00;0.00;;;;;;;;;;6255163;22;20021;-93
2021/03/08 00:45:03;;;;;;;0.00;0.00;;;;;;;;;;6264062;22;20003;-92
2021/03/08 00:47:28;;;;;;;0.00;0.00;;;;;;;;;;6258138;22;20028;-93
2021/03/08 00:49:54;;;;;;;0.00;0.00;;;;;;;;;;6253428;22;20000;-95
2021/03/08 00:52:19;;;;;;;0.00;0.00;;;;;;;;;;6252664;22;20000;-93
2021/03/08 00:54:45;;;;;;;0.00;0.00;;;;;;;;;;6252259;22;20374;-93
2021/03/08 00:57:10;;;;;;;0.00;0.00;;;;;;;;;;6252003;22;20011;-93
2021/03/08 00:59:36;;;;;;;0.00;0.00;;;;;;;;;;6252416;22;20061;-93
2021/03/08 01:02:02;;;;;;;0.00;0.00;;;;;;;;;;6255019;22;20011;-92
2021/03/08 01:04:28;;;;;;;0.00;0.00;;;;;;;;;;6258393;22;20597;-93
2021/03/08 01:06:56;;;;;;;0.00;0.00;;;;;;;;;;6252627;22;20004;-93
2021/03/08 01:09:21;;;;;;;0.00;0.00;;;;;;;;;;6251996;22;20062;-92
2021/03/08 01:11:47;;;;;;;0.00;0.00;;;;;;;;;;6256154;22;20000;-93
2021/03/08 01:14:12;;;;;;;0.00;0.00;;;;;;;;;;6256244;22;20011;-93
2021/03/08 01:16:38;;;;;;;0.00;0.00;;;;;;;;;;6252246;22;20007;-93
2021/03/08 01:19:04;;;;;;;0.00;0.00;;;;;;;;;;6254264;22;20449;-93
2021/03/08 01:21:29;;;;;;;0.00;0.00;;;;;;;;;;6258626;22;20000;-94
2021/03/08 01:23:55;;;;;;;0.00;0.00;;;;;;;;;;6254354;22;19999;-93
2021/03/08 01:26:20;;;;;;;0.00;0.00;;;;;;;;;;6252504;22;20010;-92
2021/03/08 01:28:46;;;;;;;0.00;0.00;;;;;;;;;;6253909;22;20011;-92
2021/03/08 01:31:14;;;;;;;0.00;0.00;;;;;;;;;;6256205;22;20023;-92
2021/03/08 01:33:46;;;;;;;0.00;0.00;;;;;;;;;;6258379;22;19995;-92
2021/03/08 01:36:19;;;;;;;0.00;0.00;;;;;;;;;;6256247;22;20045;-93
2021/03/08 01:38:52;;;;;;;0.00;0.00;;;;;;;;;;6253888;22;20082;-93
2021/03/08 01:41:20;;;;;;;0.00;0.00;;;;;;;;;;6255220;22;20533;-92
2021/03/08 01:44:00;;;;;;;0.00;0.00;;;;;;;;;;6253266;22;20010;-92
2021/03/08 01:46:46;;;;;;;0.00;0.00;;;;;;;;;;6255575;22;20000;-93
2021/03/08 01:49:15;;;;;;;0.00;0.00;;;;;;;;;;6254325;22;20083;-93
2021/03/08 01:51:51;;;;;;;0.00;0.00;;;;;;;;;;6256464;22;19996;-92
2021/03/08 01:54:26;;;;;;;0.00;0.00;;;;;;;;;;6254515;22;20000;-93
2021/03/08 01:56:55;;;;;;;0.00;0.00;;;;;;;;;;6254780;22;20019;-93
2021/03/08 01:59:33;;;;;;;0.00;0.00;;;;;;;;;;6254137;22;20008;-92
2021/03/08 02:02:05;;;;;;;0.00;0.00;;;;;;;;;;6254424;22;20003;-92
2021/03/08 02:04:34;;;;;;;0.00;0.00;;;;;;;;;;6254845;22;20415;-92
2021/03/08 02:07:03;;;;;;;0.00;0.00;;;;;;;;;;6253932;22;20004;-92
2021/03/08 02:09:34;;;;;;;0.00;0.00;;;;;;;;;;6253517;22;20000;-93
2021/03/08 02:12:15;;;;;;;0.00;0.00;;;;;;;;;;6254880;22;20007;-93
2021/03/08 02:14:46;;;;;;;0.00;0.00;;;;;;;;;;6253737;22;20000;-93
2021/03/08 02:17:13;;;;;;;0.00;0.00;;;;;;;;;;6252447;22;20370;-93
2021/03/08 02:19:39;;;;;;;0.00;0.00;;;;;;;;;;6251427;22;20441;-93
2021/03/08 02:22:14;;;;;;;0.00;0.00;;;;;;;;;;6251712;22;20074;-92
2021/03/08 02:24:39;;;;;;;0.00;0.00;;;;;;;;;;6251914;22;20004;-92
2021/03/08 02:27:10;;;;;;;0.00;0.00;;;;;;;;;;6251431;22;20003;-92
2021/03/08 02:29:39;;;;;;;0.00;0.00;;;;;;;;;;6250870;22;20585;-92
2021/03/08 02:32:07;;;;;;;0.00;0.00;;;;;;;;;;6252867;22;20000;-93
2021/03/08 02:34:34;;;;;;;0.00;0.00;;;;;;;;;;6258504;22;20038;-93
2021/03/08 02:37:03;;;;;;;0.00;0.00;;;;;;;;;;6253312;22;20022;-92
2021/03/08 02:39:30;;;;;;;0.00;0.00;;;;;;;;;;6252835;22;20058;-91
2021/03/08 02:41:55;;;;;;;0.00;0.00;;;;;;;;;;6259280;22;19999;-91
2021/03/08 02:44:22;;;;;;;0.00;0.00;;;;;;;;;;6253334;22;19999;-91
2021/03/08 02:46:48;;;;;;;0.00;0.00;;;;;;;;;;6262548;22;20014;-94
2021/03/08 02:49:17;;;;;;;0.00;0.00;;;;;;;;;;6255583;22;20486;-92
2021/03/08 02:51:43;;;;;;;0.00;0.00;;;;;;;;;;6256665;22;20000;-91
2021/03/08 02:54:09;;;;;;;0.00;0.00;;;;;;;;;;6254027;22;19996;-91
2021/03/08 02:56:38;;;;;;;0.00;0.00;;;;;;;;;;6270659;22;19992;-92
2021/03/08 02:59:04;;;;;;;0.00;0.00;;;;;;;;;;6257927;22;20006;-90
2021/03/08 03:01:29;;;;;;;0.00;0.00;;;;;;;;;;6261399;22;19999;-93
2021/03/08 03:03:55;;;;;;;0.00;0.00;;;;;;;;;;6257824;22;20057;-92
2021/03/08 03:06:24;;;;;;;0.00;0.00;;;;;;;;;;6263547;22;20400;-94
2021/03/08 03:08:52;;;;;;;0.00;0.00;;;;;;;;;;6255420;22;20006;-93
2021/03/08 03:11:17;;;;;;;0.00;0.00;;;;;;;;;;6257683;22;20538;-92
2021/03/08 03:13:43;;;;;;;0.00;0.00;;;;;;;;;;6253218;22;20000;-93
2021/03/08 03:16:09;;;;;;;0.00;0.00;;;;;;;;;;6257921;22;19996;-92
2021/03/08 03:18:35;;;;;;;0.00;0.00;;;;;;;;;;6258561;22;20082;-92
2021/03/08 03:21:00;;;;;;;0.00;0.00;;;;;;;;;;6256381;22;20027;-92
2021/03/08 03:23:26;;;;;;;0.00;0.00;;;;;;;;;;6256002;22;20000;-92
2021/03/08 03:25:52;;;;;;;0.00;0.00;;;;;;;;;;6263467;22;20003;-92
2021/03/08 03:28:17;;;;;;;0.00;0.00;;;;;;;;;;6255801;22;20015;-93
2021/03/08 03:30:43;;;;;;;0.00;0.00;;;;;;;;;;6250580;22;19999;-93
2021/03/08 03:33:08;;;;;;;0.00;0.00;;;;;;;;;;6255183;22;19996;-92
2021/03/08 03:35:33;;;;;;;0.00;0.00;;;;;;;;;;6251704;22;20040;-93
2021/03/08 03:37:59;;;;;;;0.00;0.00;;;;;;;;;;6250644;22;20423;-92
2021/03/08 03:40:24;;;;;;;0.00;0.00;;;;;;;;;;6249590;22;20073;-93
2021/03/08 03:42:50;;;;;;;0.00;0.00;;;;;;;;;;6254342;22;20052;-94
2021/03/08 03:45:16;;;;;;;0.00;0.00;;;;;;;;;;6258861;22;20000;-93
2021/03/08 03:47:42;;;;;;;0.00;0.00;;;;;;;;;;6254183;22;20474;-94
2021/03/08 03:50:09;;;;;;;0.00;0.00;;;;;;;;;;6257667;22;20011;-93
2021/03/08 03:52:35;;;;;;;0.00;0.00;;;;;;;;;;6260667;22;20075;-94
2021/03/08 03:55:00;;;;;;;0.00;0.00;;;;;;;;;;6257996;22;19999;-94
2021/03/08 03:57:28;;;;;;;0.00;0.00;;;;;;;;;;6258865;22;20039;-94
2021/03/08 03:59:57;;;;;;;0.00;0.00;;;;;;;;;;6254663;22;19999;-93
2021/03/08 04:02:26;;;;;;;0.00;0.00;;;;;;;;;;6253465;22;20010;-93
2021/03/08 04:04:53;;;;;;;0.00;0.00;;;;;;;;;;6251652;22;20023;-94
2021/03/08 04:07:18;;;;;;;0.00;0.00;;;;;;;;;;6251092;22;20153;-93
2021/03/08 04:09:45;;;;;;;0.00;0.00;;;;;;;;;;6251220;22;20035;-93
2021/03/08 04:12:15;;;;;;;0.00;0.00;;;;;;;;;;6252944;22;20003;-92
2021/03/08 04:14:41;;;;;;;0.00;0.00;;;;;;;;;;6251208;22;20070;-94
2021/03/08 04:17:09;;;;;;;0.00;0.00;;;;;;;;;;6257946;22;20003;-94
2021/03/08 04:19:35;;;;;;;0.00;0.00;;;;;;;;;;6260074;22;20031;-93
2021/03/08 04:22:04;;;;;;;0.00;0.00;;;;;;;;;;6254921;22;20027;-93
2021/03/08 04:24:32;;;;;;;0.00;0.00;;;;;;;;;;6257678;22;20027;-93
2021/03/08 04:26:58;;;;;;;0.00;0.00;;;;;;;;;;6260882;22;20526;-93
2021/03/08 04:29:23;;;;;;;0.00;0.00;;;;;;;;;;6259017;22;20002;-93
2021/03/08 04:31:49;;;;;;;0.00;0.00;;;;;;;;;;6253203;22;20309;-93
2021/03/08 04:34:14;;;;;;;0.00;0.00;;;;;;;;;;6253485;22;20000;-94
2021/03/08 04:36:43;;;;;;;0.00;0.00;;;;;;;;;;6261281;22;19992;-92
2021/03/08 04:39:10;;;;;;;0.00;0.00;;;;;;;;;;6263704;22;20000;-94
2021/03/08 04:41:35;;;;;;;0.00;0.00;;;;;;;;;;6266089;22;19999;-92
2021/03/08 04:44:03;;;;;;;0.00;0.00;;;;;;;;;;6262167;22;20011;-94
2021/03/08 04:46:30;;;;;;;0.00;0.00;;;;;;;;;;6266217;22;20373;-92
2021/03/08 04:48:58;;;;;;;0.00;0.00;;;;;;;;;;6263286;22;20010;-92
2021/03/08 04:51:26;;;;;;;0.00;0.00;;;;;;;;;;6260364;22;19995;-93
2021/03/08 04:53:52;;;;;;;0.00;0.00;;;;;;;;;;6259239;22;19992;-92
2021/03/08 04:56:20;;;;;;;0.00;0.00;;;;;;;;;;6265882;22;19999;-93
2021/03/08 04:58:46;;;;;;;0.00;0.00;;;;;;;;;;6261874;22;20028;-93
2021/03/08 05:01:15;;;;;;;0.00;0.00;;;;;;;;;;6256902;22;20006;-93
2021/03/08 05:03:44;;;;;;;0.00;0.00;;;;;;;;;;6258141;22;20068;-92
2021/03/08 05:06:09;;;;;;;0.00;0.00;;;;;;;;;;6251743;22;19999;-93
2021/03/08 05:08:35;;;;;;;0.00;0.00;;;;;;;;;;6254350;22;20007;-94
2021/03/08 05:11:03;;;;;;;0.00;0.00;;;;;;;;;;6259670;22;20002;-93
2021/03/08 05:13:30;;;;;;;0.00;0.00;;;;;;;;;;6253563;22;20000;-94
2021/03/08 05:15:55;;;;;;;0.00;0.00;;;;;;;;;;6253148;22;20000;-93
2021/03/08 05:18:21;;;;;;;0.00;0.00;;;;;;;;;;6255789;22;20015;-95
2021/03/08 05:20:50;;;;;;;0.00;0.00;;;;;;;;;;6253762;22;20007;-94
2021/03/08 05:23:15;;;;;;;0.00;0.00;;;;;;;;;;6253729;22;20427;-94
2021/03/08 05:25:41;;;;;;;0.00;0.00;;;;;;;;;;6250771;22;19996;-94
2021/03/08 05:28:09;;;;;;;0.00;0.00;;;;;;;;;;6253518;22;19996;-94
2021/03/08 05:30:36;;;;;;;0.00;0.00;;;;;;;;;;6258191;22;20002;-94
2021/03/08 05:33:09;;;;;;;0.00;0.00;;;;;;;;;;6261339;22;19992;-94
2021/03/08 05:35:35;;;;;;;0.00;0.00;;;;;;;;;;6254954;22;19999;-94
2021/03/08 05:38:01;;;;;;;0.00;0.00;;;;;;;;;;6252580;22;20003;-93
2021/03/08 05:40:29;;;;;;;0.00;0.00;;;;;;;;;;6254534;22;20000;-93
2021/03/08 05:43:07;;;;;;;0.00;0.00;;;;;;;;;;6254988;22;20000;-93
2021/03/08 05:45:33;;;;;;;0.00;0.00;;;;;;;;;;6263128;22;20000;-95
2021/03/08 05:48:10;;;;;;;0.00;0.00;;;;;;;;;;6264065;22;19999;-95
2021/03/08 05:50:55;;;;;;;0.00;0.00;;;;;;;;;;6290797;22;20006;-93
2021/03/08 05:53:21;;;;;;;0.00;0.00;;;;;;;;;;6262432;22;20053;-92
2021/03/08 05:55:59;;;;;;;0.00;0.00;;;;;;;;;;6263018;22;20024;-94
2021/03/08 05:58:39;;;;;;;0.00;0.00;;;;;;;;;;6263211;22;20016;-93
2021/03/08 06:01:20;;;;;;;0.00;0.00;;;;;;;;;;6261427;22;20494;-94
2021/03/08 06:03:53;;;;;;;0.00;0.00;;;;;;;;;;6265748;22;20004;-94
2021/03/08 06:06:31;;;;;;;0.00;0.00;;;;;;;;;;6262496;22;20004;-94
2021/03/08 06:09:25;;;;;;;0.00;0.00;;;;;;;;;;6258363;22;20007;-94
2021/03/08 06:14:51;;;;;;;0.00;0.00;;;;;;;;;;6264796;22;20443;-94
2021/03/08 06:17:24;;;;;;;0.00;0.00;;;;;;;;;;6258296;22;19992;-93
2021/03/08 06:22:36;;;;;;;0.00;0.00;;;;;;;;;;6263031;22;20007;-95
2021/03/08 06:25:12;;;;;;;0.00;0.00;;;;;;;;;;6257017;22;20079;-94
2021/03/08 06:27:41;;;;;;;0.00;0.00;;;;;;;;;;6259100;22;20017;-94
2021/03/08 06:30:10;;;;;;;0.00;0.00;;;;;;;;;;6255879;22;20029;-93
2021/03/08 06:32:35;;;;;;;0.00;0.00;;;;;;;;;;6255063;22;19995;-93
2021/03/08 06:35:01;;;;;;;0.00;0.00;;;;;;;;;;6254483;22;19999;-94
2021/03/08 06:37:26;;;;;;;0.00;0.00;;;;;;;;;;6253747;22;20002;-94
2021/03/08 06:39:55;;;;;;;0.00;0.00;;;;;;;;;;6253221;22;20079;-94
2021/03/08 06:42:23;;;;;;;0.00;0.00;;;;;;;;;;6259632;22;20034;-93
2021/03/08 06:44:51;;;;;;;0.00;0.00;;;;;;;;;;6258347;22;20000;-95
2021/03/08 06:47:18;;;;;;;0.00;0.00;;;;;;;;;;6258081;22;20332;-93
2021/03/08 06:49:48;;;;;;;0.00;0.00;;;;;;;;;;6254795;22;19996;-94
2021/03/08 06:52:34;;;;;;;0.00;0.00;;;;;;;;;;6256536;22;20031;-95
2021/03/08 06:58:25;;;;;;;0.00;0.00;;;;;;;;;;6279558;22;20016;-95
2021/03/08 07:00:51;;;;;;;0.00;0.00;;;;;;;;;;6264039;22;20078;-93
2021/03/08 07:06:45;;;;;;;0.00;0.00;;;;;;;;;;6279229;22;20447;-93
2021/03/08 07:09:15;;;;;;;0.00;0.00;;;;;;;;;;6264771;22;20059;-94
2021/03/08 07:12:01;;;;;;;0.00;0.00;;;;;;;;;;6266452;22;19995;-94
2021/03/08 07:14:37;;;;;;;0.00;0.00;;;;;;;;;;6261116;22;20003;-94
2021/03/08 07:17:28;;;;;;;0.00;0.00;;;;;;;;;;6260848;22;20081;-94
2021/03/08 07:20:19;;;;;;;0.00;0.00;;;;;;;;;;6281131;22;19999;-94
2021/03/08 07:22:55;;;;;;;0.00;0.00;;;;;;;;;;6259353;22;20004;-94
2021/03/08 07:28:53;;;;;;;0.00;0.00;;;;;;;;;;6260988;22;20007;-94
2021/03/08 07:31:34;;;;;;;0.00;0.00;;;;;;;;;;6245286;22;19996;-94
2021/03/08 07:34:08;;;;;;;0.00;0.00;;;;;;;;;;6259606;22;20331;-94
2021/03/08 07:40:09;;;;;;;0.00;0.00;;;;;;;;;;6267139;22;20000;-93
2021/03/08 07:42:46;;;;;;;0.00;0.00;;;;;;;;;;6178513;22;20000;-94
2021/03/08 07:45:19;;;;;;;0.00;0.00;;;;;;;;;;6260635;22;20000;-94
2021/03/08 07:48:08;;;;;;;0.00;0.00;;;;;;;;;;6255922;22;20327;-95
2021/03/08 07:51:00;;;;;;;0.00;0.00;;;;;;;;;;6256940;22;19996;-94
2021/03/08 07:53:54;;;;;;;0.00;0.00;;;;;;;;;;6271356;22;19992;-95
2021/03/08 07:59:50;;;;;;;0.00;0.00;;;;;;;;;;6158321;23;20586;-93
2021/03/08 08:02:46;;;;;;;0.00;0.00;;;;;;;;;;6140684;23;20069;-94
2021/03/08 08:08:19;;;;;;;0.00;0.00;;;;;;;;;;6187758;23;20008;-94
2021/03/08 08:11:16;;;;;;;0.00;0.00;;;;;;;;;;6205803;22;20000;-92
2021/03/08 08:17:31;;;;;;;0.00;0.00;;;;;;;;;;6256030;22;19999;-95
2021/03/08 08:20:09;;;;;;;0.00;0.00;;;;;;;;;;6267596;22;20000;-95
2021/03/08 08:23:03;;;;;;;0.00;0.00;;;;;;;;;;6261101;22;20000;-94
2021/03/08 08:25:37;;;;;;;;;;;;;;;;;;6259766;22;20087;-94
2021/03/08 08:28:19;;;;;;;0.00;0.00;;;;;;;;;;6281015;22;19899;-94
2021/03/08 08:31:12;;;;;;;0.00;0.00;;;;;;;;;;6258566;22;20006;-94
2021/03/08 08:33:43;;;;;;;0.00;0.00;;;;;;;;;;6251194;22;20058;-94
2021/03/08 08:36:25;;;;;;;0.00;0.00;;;;;;;;;;6229343;22;19996;-94
2021/03/08 08:39:09;;;;;;;0.00;0.00;;;;;;;;;;6242568;22;20056;-94
2021/03/08 08:44:51;;;;;;;0.00;0.00;;;;;;;;;;6192129;23;20030;-94
2021/03/08 08:50:50;;;;;;;0.00;0.00;;;;;;;;;;6237888;23;20400;-95
2021/03/08 08:53:37;;;;;;;0.00;0.00;;;;;;;;;;6250086;23;20000;-94
2021/03/08 08:56:03;;;;;;;0.00;0.00;;;;;;;;;;6263887;22;20447;-94
2021/03/08 08:58:29;;;;;;;0.00;0.00;;;;;;;;;;6222767;23;20012;-95
2021/03/08 09:01:04;;;;;;;0.00;0.00;;;;;;;;;;6222781;23;20008;-93
2021/03/08 09:03:39;;;;;;;0.00;0.00;;;;;;;;;;6221447;23;20412;-92
2021/03/08 09:06:24;;;;;;;0.00;0.00;;;;;;;;;;6222783;23;20053;-93
2021/03/08 09:08:52;;;;;;;0.00;0.00;;;;;;;;;;6226073;23;20000;-94
2021/03/08 09:11:38;;;;;;;0.00;0.00;;;;;;;;;;6220746;23;20008;-94
2021/03/08 09:14:13;;;;;;;0.00;0.00;;;;;;;;;;6224929;23;20514;-95
2021/03/08 09:16:39;;;;;;;0.00;0.00;;;;;;;;;;6221716;23;20000;-91
2021/03/08 09:19:15;;;;;;;0.00;0.00;;;;;;;;;;6217855;23;20023;-93
2021/03/08 09:21:40;;;;;;;0.00;0.00;;;;;;;;;;6220661;23;20408;-93
2021/03/08 09:24:15;;;;;;;0.00;0.00;;;;;;;;;;6220992;23;20001;-92
2021/03/08 09:26:40;;;;;;;0.00;0.00;;;;;;;;;;6221067;23;19996;-93
2021/03/08 09:29:06;;;;;;;0.00;0.00;;;;;;;;;;6221065;23;20000;-93
2021/03/08 09:31:31;;;;;;;0.00;0.00;;;;;;;;;;6221303;23;20431;-93
2021/03/08 09:33:57;;;;;;;0.00;0.00;;;;;;;;;;6220880;23;20011;-93
2021/03/08 09:36:22;;;;;;;0.00;0.00;;;;;;;;;;6220908;23;20023;-91
2021/03/08 09:38:47;;;;;;;0.00;0.00;;;;;;;;;;6220837;23;20007;-92
2021/03/08 09:41:13;;;;;;;0.00;0.00;;;;;;;;;;6220774;23;20004;-92
2021/03/08 09:43:39;;;;;;;0.00;0.00;;;;;;;;;;6220925;23;20083;-93
2021/03/08 09:46:06;;;;;;;0.00;0.00;;;;;;;;;;6221228;23;20054;-92
2021/03/08 09:48:34;;;;;;;0.00;0.00;;;;;;;;;;6221071;23;20008;-92
2021/03/08 09:51:03;;;;;;;0.00;0.00;;;;;;;;;;6220973;23;19996;-92
2021/03/08 09:53:33;;;;;;;0.00;0.00;;;;;;;;;;6221121;23;20003;-92
2021/03/08 09:56:02;;;;;;;0.00;0.00;;;;;;;;;;6221486;23;20027;-93
2021/03/08 09:58:28;;;;;;;0.00;0.00;;;;;;;;;;6222455;23;20020;-94
2021/03/08 10:00:53;;;;;;;0.00;0.00;;;;;;;;;;6232461;23;20030;-93
2021/03/08 10:03:19;;;;;;;0.00;0.00;;;;;;;;;;6221653;23;20335;-92
2021/03/08 10:05:45;;;;;;;0.00;0.00;;;;;;;;;;6220709;23;20087;-93
2021/03/08 10:08:11;;;;;;;0.00;0.00;;;;;;;;;;6221178;23;20001;-92
2021/03/08 10:10:38;;;;;;;0.00;0.00;;;;;;;;;;6220627;23;20011;-92
2021/03/08 10:13:03;;;;;;;0.00;0.00;;;;;;;;;;6220756;23;20008;-93
2021/03/08 10:15:44;;;;;;;0.00;0.00;;;;;;;;;;6220538;23;19996;-94
2021/03/08 10:18:09;;;;;;;0.00;0.00;;;;;;;;;;6221300;23;19996;-93
2021/03/08 10:20:41;;;;;;;0.00;0.00;;;;;;;;;;6220693;23;20029;-93
2021/03/08 10:23:13;;;;;;;0.00;0.00;;;;;;;;;;6221289;23;20000;-93
2021/03/08 10:25:38;;;;;;;0.00;0.00;;;;;;;;;;6221267;23;20008;-93
2021/03/08 10:28:04;;;;;;;0.00;0.00;;;;;;;;;;6220921;23;20004;-94
2021/03/08 10:30:30;;;;;;;0.00;0.00;;;;;;;;;;6221569;23;20019;-93
2021/03/08 10:33:01;;;;;;;0.00;0.00;;;;;;;;;;6221520;23;20487;-94
2021/03/08 10:35:26;;;;;;;0.00;0.00;;;;;;;;;;6220285;23;20008;-94
2021/03/08 10:37:52;;;;;;;0.00;0.00;;;;;;;;;;6216980;23;20000;-94
2021/03/08 10:40:17;;;;;;;0.00;0.00;;;;;;;;;;6220180;23;20047;-93
2021/03/08 10:42:43;;;;;;;0.00;0.00;;;;;;;;;;6221816;23;20004;-93
2021/03/08 10:45:09;;;;;;;0.00;0.00;;;;;;;;;;6220769;23;20003;-94
2021/03/08 10:47:34;;;;;;;0.00;0.00;;;;;;;;;;6221990;23;20074;-93
2021/03/08 10:50:00;;;;;;;0.00;0.00;;;;;;;;;;6221226;23;20001;-93
2021/03/08 10:52:25;;;;;;;0.00;0.00;;;;;;;;;;6221398;23;19997;-94
2021/03/08 10:54:50;;;;;;;0.00;0.00;;;;;;;;;;6220984;23;20000;-93
2021/03/08 10:57:16;;;;;;;0.00;0.00;;;;;;;;;;6221202;23;20020;-92
2021/03/08 10:59:47;;;;;;;0.00;0.00;;;;;;;;;;6223069;23;20012;-93
2021/03/08 11:02:15;;;;;;;0.00;0.00;;;;;;;;;;6222065;23;20000;-94
2021/03/08 11:04:43;;;;;;;0.00;0.00;;;;;;;;;;6222369;23;20058;-94
2021/03/08 11:07:09;;;;;;;0.00;0.00;;;;;;;;;;6222487;23;20022;-94
2021/03/08 11:09:36;;;;;;;0.00;0.00;;;;;;;;;;6222172;23;20416;-93
2021/03/08 11:12:02;;;;;;;0.00;0.00;;;;;;;;;;6223117;23;19992;-93
2021/03/08 11:14:27;;;;;;;0.00;0.00;;;;;;;;;;6221165;23;20000;-90
2021/03/08 11:16:55;;;;;;;0.00;0.00;;;;;;;;;;6221890;23;20324;-94
2021/03/08 11:19:22;;;;;;;0.00;0.00;;;;;;;;;;6223335;23;20004;-94
2021/03/08 11:22:08;;;;;;;0.00;0.00;;;;;;;;;;6227174;23;20008;-93
2021/03/08 11:24:43;;;;;;;0.00;0.00;;;;;;;;;;6229300;23;20026;-93
2021/03/08 11:27:09;;;;;;;0.30;0.30;;;;;;;;;;6221585;23;20003;-93
2021/03/08 11:29:35;;;;;;;0.00;0.00;;;;;;;;;;6224903;23;20067;-94
2021/03/08 11:32:53;;;;;;;0.00;0.00;;;;;;;;;;6229817;23;20000;-94
2021/03/08 11:37:54;;;;;;;0.00;0.00;;;;;;;;;;6246289;23;20435;-93
2021/03/08 11:40:22;;;;;;;0.00;0.00;;;;;;;;;;6226183;23;19998;-93
2021/03/08 11:45:53;;;;;;;0.00;0.00;;;;;;;;;;6205664;22;20027;-95
2021/03/08 11:48:46;;;;;;;0.00;0.00;;;;;;;;;;6230276;23;20049;-94
2021/03/08 11:51:22;;;;;;;0.00;0.00;;;;;;;;;;6244654;23;20007;-94
2021/03/08 11:54:10;;;;;;;0.00;0.00;;;;;;;;;;6236912;23;20042;-93
2021/03/08 12:20:32;;;;;;;0.00;0.00;;;;;;;;;;6047155;23;20015;-94
2021/03/08 12:29:31;;;;;;;0.00;0.00;;;;;;;;;;5986503;23;20016;-95
2021/03/08 12:35:45;;;;;;;0.00;0.00;;;;;;;;;;5961695;24;20005;-94
2021/03/08 13:10:10;;;;;;;0.00;0.00;;;;;;;;;;5909572;24;20173;-94
2021/03/08 19:20:11;;;;;;;0.00;0.00;;;;;;;;;;5731718;24;20063;-94
2021/03/08 19:51:17;;;;;;;0.00;0.00;;;;;;;;;;5898002;24;20046;-93
2021/03/08 19:53:50;;;;;;;;;;;;;;;;;;5917020;24;20092;-93
2021/03/08 21:27:24;;;;;;;0.00;0.00;;;;;;;;;;6132964;23;20077;-93
2021/03/08 21:29:50;;;;;;;0.00;0.00;;;;;;;;;;6088645;23;20010;-94
